Time;durP1;ratioP1;P1;durP2;ratioP2;P2;SDS_P1;SDS_P2;PMS_P1;PMS_P2;Temp;Humidity;BMP_temperature;BMP_pressure;BME280_temperature;BME280_humidity;BME280_pressure;Samples;Min_cycle;Max_cycle;Signal;HPM_P1;HPM_P2
2022/02/03 00:00:42;;;;;;;;;;;;;;;15.03;61.32;101672.34;1018284;29;650;-62
2022/02/03 00:01:49;;;;;;;;;;;;;;;15.02;61.70;101673.31;1020057;29;2296;-63
2022/02/03 00:02:51;;;;;;;;;;;;;;;15.02;61.28;101667.94;1021158;29;646;-62
2022/02/03 00:03:53;;;;;;;;;;;;;;;15.01;61.27;101669.75;1020981;29;950;-63
2022/02/03 00:05:22;;;;;;;;;;;;;;;15.01;61.20;101668.91;1020905;29;1764;-62
2022/02/03 00:06:07;;;;;;;;;;;;;;;15.01;61.25;101658.16;1017165;29;843;-62
2022/02/03 00:07:02;;;;;;;;;;;;;;;15.01;61.55;101663.53;1017723;29;723;-63
2022/02/03 00:08:07;;;;;;;;;;;;;;;15.01;61.15;101659.03;1017723;29;936;-62
2022/02/03 00:11:25;;;;;;;;;;;;;;;15.01;61.72;101666.22;1017707;29;710;-62
2022/02/03 00:22:01;;;;;;;;;;;;;;;15.00;61.31;101653.75;1021516;29;735;-62
2022/02/03 00:22:13;;;;;;;;;;;;;;;14.97;61.31;101646.78;1005585;29;924;-64
2022/02/03 00:24:17;;;;;;;;;;;;;;;14.98;61.74;101650.31;1018188;29;782;-65
2022/02/03 00:25:59;;;;;;;;;;;;;;;14.98;61.21;101653.00;1018125;29;796;-65
2022/02/03 00:26:49;;;;;;;;;;;;;;;14.98;61.22;101647.63;1017152;29;965;-65
2022/02/03 00:27:48;;;;;;;;;;;;;;;14.98;61.81;101647.63;1019995;29;2049;-65
2022/02/03 00:28:41;;;;;;;;;;;;;;;14.98;61.32;101647.63;1016729;29;874;-65
2022/02/03 00:29:49;;;;;;;;;;;;;;;14.97;61.88;101646.78;1017307;29;842;-65
2022/02/03 00:31:58;;;;;;;;;;;;;;;14.96;61.67;101645.06;1021981;29;1998;-65
2022/02/03 00:33:06;;;;;;;;;;;;;;;14.97;61.22;101653.97;1020901;29;915;-64
2022/02/03 00:34:05;;;;;;;;;;;;;;;14.96;61.69;101650.44;1017583;29;703;-65
2022/02/03 00:35:20;;;;;;;;;;;;;;;14.97;61.54;101648.59;1022516;28;1889;-64
2022/02/03 00:36:23;;;;;;;;;;;;;;;14.96;61.56;101647.75;1021574;29;755;-65
2022/02/03 00:37:30;;;;;;;;;;;;;;;14.96;61.70;101649.56;1021458;29;881;-64
2022/02/03 00:48:23;;;;;;;;;;;;;;;14.95;61.54;101648.72;1017653;29;709;-64
2022/02/03 00:49:15;;;;;;;;;;;;;;;14.95;61.75;101648.72;1018412;29;745;-63
2022/02/03 00:50:11;;;;;;;;;;;;;;;14.93;61.69;101648.81;1022144;29;1141;-64
2022/02/03 00:51:02;;;;;;;;;;;;;;;14.93;61.18;101651.50;1022243;29;1680;-63
2022/02/03 00:51:53;;;;;;;;;;;;;;;14.93;61.35;101647.94;1022167;29;876;-64
2022/02/03 00:52:43;;;;;;;;;;;;;;;14.91;61.68;101645.38;1020055;28;698;-63
2022/02/03 00:53:34;;;;;;;;;;;;;;;14.92;61.63;101651.59;1019290;28;856;-63
2022/02/03 00:54:25;;;;;;;;;;;;;;;14.91;61.79;101648.06;1018930;29;1966;-63
2022/02/03 00:55:16;;;;;;;;;;;;;;;14.93;61.25;101645.28;1022319;29;803;-63
2022/02/03 00:56:06;;;;;;;;;;;;;;;14.92;60.94;101641.72;1021017;29;771;-64
2022/02/03 00:56:57;;;;;;;;;;;;;;;14.93;61.54;101647.94;1021183;29;684;-63
2022/02/03 00:57:47;;;;;;;;;;;;;;;14.92;61.47;101644.41;1021252;29;972;-64
2022/02/03 00:58:37;;;;;;;;;;;;;;;14.93;61.32;101651.50;1021242;29;635;-63
2022/02/03 00:59:28;;;;;;;;;;;;;;;14.93;61.49;101648.81;1022562;29;654;-64
2022/02/03 01:00:18;;;;;;;;;;;;;;;14.92;61.64;101647.09;1022466;29;810;-64
2022/02/03 01:01:09;;;;;;;;;;;;;;;14.94;61.39;101655.03;1022519;29;734;-68
2022/02/03 01:01:59;;;;;;;;;;;;;;;14.93;61.57;101646.13;1017033;29;881;-65
2022/02/03 01:02:50;;;;;;;;;;;;;;;14.92;61.36;101641.72;1017907;29;784;-64
2022/02/03 01:03:41;;;;;;;;;;;;;;;14.93;61.63;101650.63;1017772;29;937;-65
2022/02/03 01:04:31;;;;;;;;;;;;;;;14.93;61.24;101650.63;1018235;29;963;-65
2022/02/03 01:05:22;;;;;;;;;;;;;;;14.92;61.75;101648.91;1017803;29;904;-64
2022/02/03 01:06:12;;;;;;;;;;;;;;;14.92;61.46;101648.91;1013553;29;800;-64
2022/02/03 01:07:03;;;;;;;;;;;;;;;14.91;61.46;101650.75;1014253;29;848;-64
2022/02/03 01:07:54;;;;;;;;;;;;;;;14.91;61.57;101650.75;1018312;29;775;-65
2022/02/03 01:08:45;;;;;;;;;;;;;;;14.91;61.43;101648.06;1017834;29;713;-66
2022/02/03 01:09:38;;;;;;;;;;;;;;;14.91;61.34;101648.06;1019384;29;1658;-66
2022/02/03 01:10:32;;;;;;;;;;;;;;;14.90;61.45;101654.41;1021599;29;2031;-66
2022/02/03 01:11:25;;;;;;;;;;;;;;;14.91;61.74;101648.06;1022200;29;849;-67
2022/02/03 01:12:35;;;;;;;;;;;;;;;14.89;61.51;101655.34;1022282;29;700;-67
2022/02/03 01:14:56;;;;;;;;;;;;;;;14.88;61.94;101642.91;1021953;29;1989;-64
2022/02/03 01:15:55;;;;;;;;;;;;;;;14.88;61.48;101650.94;1021722;29;635;-63
2022/02/03 01:17:48;;;;;;;;;;;;;;;14.89;61.89;101647.31;1022832;29;626;-64
2022/02/03 01:37:37;;;;;;;;;;;;;;;14.84;61.57;101621.78;1022587;29;1837;-64
2022/02/03 01:44:30;;;;;;;;;;;;;;;14.81;61.79;101605.88;1022500;29;960;-64
2022/02/03 01:45:24;;;;;;;;;;;;;;;14.83;62.39;101606.66;1021463;29;832;-64
2022/02/03 01:46:16;;;;;;;;;;;;;;;14.83;61.74;101603.97;1021620;29;961;-64
2022/02/03 01:47:22;;;;;;;;;;;;;;;14.84;61.75;101603.84;1021693;29;709;-65
2022/02/03 01:48:23;;;;;;;;;;;;;;;14.84;62.14;101603.84;1021480;29;1884;-65
2022/02/03 01:49:16;;;;;;;;;;;;;;;14.85;61.61;101600.22;1022127;29;762;-65
2022/02/03 01:52:05;;;;;;;;;;;;;;;14.83;61.59;101591.41;1018004;29;1836;-65
2022/02/03 01:52:56;;;;;;;;;;;;;;;14.82;61.72;101592.38;1021074;29;713;-65
2022/02/03 01:53:46;;;;;;;;;;;;;;;14.82;61.68;101587.00;1021404;29;1219;-65
2022/02/03 01:54:37;;;;;;;;;;;;;;;14.81;61.79;101585.28;1021955;29;851;-64
2022/02/03 01:55:27;;;;;;;;;;;;;;;14.81;62.09;101587.97;1022134;29;698;-64
2022/02/03 01:56:18;;;;;;;;;;;;;;;14.82;62.12;101583.47;1022085;29;746;-65
2022/02/03 01:57:08;;;;;;;;;;;;;;;14.81;62.15;101598.69;1019034;29;721;-64
2022/02/03 01:57:59;;;;;;;;;;;;;;;14.82;61.65;101594.19;1017771;29;1885;-65
2022/02/03 01:58:49;;;;;;;;;;;;;;;14.81;61.58;101593.34;1020989;29;854;-65
2022/02/03 01:59:40;;;;;;;;;;;;;;;14.83;62.15;101590.53;1021878;29;795;-64
2022/02/03 02:00:30;;;;;;;;;;;;;;;14.82;61.68;101595.06;1021358;29;2067;-65
2022/02/03 02:01:21;;;;;;;;;;;;;;;14.82;61.88;101587.00;1020676;29;1980;-64
2022/02/03 02:02:11;;;;;;;;;;;;;;;14.82;62.23;101581.63;1013895;29;1845;-64
2022/02/03 02:03:01;;;;;;;;;;;;;;;14.83;61.82;101590.53;1017816;29;724;-64
2022/02/03 02:03:52;;;;;;;;;;;;;;;14.82;62.26;101587.00;1021538;29;682;-64
2022/02/03 02:04:42;;;;;;;;;;;;;;;14.82;62.09;101578.94;1021990;29;736;-65
2022/02/03 02:05:33;;;;;;;;;;;;;;;14.81;62.13;101577.22;1021427;29;748;-64
2022/02/03 02:06:23;;;;;;;;;;;;;;;14.80;61.68;101586.25;1022033;29;1070;-65
2022/02/03 02:07:13;;;;;;;;;;;;;;;14.81;62.00;101587.09;1022127;29;780;-64
2022/02/03 02:08:04;;;;;;;;;;;;;;;14.80;61.55;101586.25;1022052;29;750;-64
2022/02/03 02:08:56;;;;;;;;;;;;;;;14.81;62.05;101576.38;1021908;29;949;-64
2022/02/03 02:09:59;;;;;;;;;;;;;;;14.82;62.07;101578.94;1021286;29;1800;-65
2022/02/03 02:11:12;;;;;;;;;;;;;;;14.82;62.18;101581.63;1021404;29;903;-65
2022/02/03 02:12:18;;;;;;;;;;;;;;;14.82;61.81;101578.94;1021415;29;712;-64
2022/02/03 02:13:16;;;;;;;;;;;;;;;14.82;61.45;101573.59;1021414;29;884;-65
2022/02/03 02:18:08;;;;;;;;;;;;;;;14.82;62.01;101572.72;1022455;29;761;-64
2022/02/03 02:18:19;;;;;;;;;;;;;;;14.80;62.13;101570.16;1020117;29;1171;-64
2022/02/03 02:19:20;;;;;;;;;;;;;;;14.80;61.91;101564.78;1021529;29;808;-64
2022/02/03 02:37:49;;;;;;;;;;;;;;;14.71;62.33;101576.16;1021920;29;742;-63
2022/02/03 02:39:30;;;;;;;;;;;;;;;14.69;62.45;101572.72;1022130;29;1806;-63
2022/02/03 02:40:46;;;;;;;;;;;;;;;14.69;61.95;101575.41;1021939;29;889;-63
2022/02/03 02:42:45;;;;;;;;;;;;;;;14.69;62.14;101567.34;1022521;29;723;-63
2022/02/03 02:43:36;;;;;;;;;;;;;;;14.70;62.19;101557.47;1020861;29;723;-64
2022/02/03 02:44:26;;;;;;;;;;;;;;;14.71;61.83;101561.88;1020803;29;2360;-64
2022/02/03 02:45:17;;;;;;;;;;;;;;;14.70;61.80;101552.09;1020717;29;729;-63
2022/02/03 02:46:07;;;;;;;;;;;;;;;14.69;61.97;101550.44;1020833;29;736;-63
2022/02/03 02:46:57;;;;;;;;;;;;;;;14.68;62.04;101554.94;1020701;29;721;-63
2022/02/03 02:47:48;;;;;;;;;;;;;;;14.68;61.79;101549.56;1020755;29;650;-64
2022/02/03 02:48:38;;;;;;;;;;;;;;;14.68;62.22;101549.56;1020935;29;744;-64
2022/02/03 02:49:29;;;;;;;;;;;;;;;14.69;62.34;101545.06;1020315;29;1763;-65
2022/02/03 02:50:27;;;;;;;;;;;;;;;14.69;62.07;101542.38;1020721;29;1267;-64
2022/02/03 02:51:21;;;;;;;;;;;;;;;14.68;61.94;101546.88;1021807;29;795;-64
2022/02/03 02:52:13;;;;;;;;;;;;;;;14.68;62.31;101541.53;1021581;29;1630;-63
2022/02/03 02:53:16;;;;;;;;;;;;;;;14.66;62.14;101540.75;1018411;29;715;-64
2022/02/03 02:55:20;;;;;;;;;;;;;;;14.68;61.75;101538.84;1019009;29;869;-63
2022/02/03 02:57:45;;;;;;;;;;;;;;;14.66;62.07;101531.84;1017856;29;937;-64
2022/02/03 03:30:37;;;;;;;;;;;;;;;14.64;61.77;101459.53;1022287;29;726;-64
2022/02/03 03:31:25;;;;;;;;;;;;;;;14.62;62.19;101458.78;1022244;29;718;-64
2022/02/03 03:33:27;;;;;;;;;;;;;;;14.61;62.17;101453.53;1021012;29;835;-64
2022/02/03 03:34:36;;;;;;;;;;;;;;;14.62;61.74;101457.94;1021494;29;1891;-63
2022/02/03 03:35:34;;;;;;;;;;;;;;;14.60;61.85;101447.31;1021643;29;737;-63
2022/02/03 03:36:25;;;;;;;;;;;;;;;14.59;61.49;101443.75;1017384;29;825;-64
2022/02/03 03:37:24;;;;;;;;;;;;;;;14.61;61.86;101446.34;1016045;29;815;-65
2022/02/03 03:38:18;;;;;;;;;;;;;;;14.62;62.41;101447.19;1020012;29;817;-64
2022/02/03 03:39:08;;;;;;;;;;;;;;;14.60;62.26;101450.00;1021520;29;1948;-64
2022/02/03 03:40:01;;;;;;;;;;;;;;;14.61;61.88;101448.16;1020510;29;686;-64
2022/02/03 03:40:52;;;;;;;;;;;;;;;14.62;61.97;101457.94;1021549;29;1918;-64
2022/02/03 03:41:46;;;;;;;;;;;;;;;14.61;61.76;101457.06;1021755;29;705;-64
2022/02/03 03:42:36;;;;;;;;;;;;;;;14.59;62.64;101449.13;1022108;29;871;-65
2022/02/03 03:43:27;;;;;;;;;;;;;;;14.60;61.79;101452.66;1020528;29;632;-65
2022/02/03 03:44:17;;;;;;;;;;;;;;;14.61;61.94;101456.22;1020639;29;758;-65
2022/02/03 03:45:07;;;;;;;;;;;;;;;14.60;62.19;101455.34;1016445;29;872;-65
2022/02/03 03:45:58;;;;;;;;;;;;;;;14.60;61.82;101460.72;1017711;29;702;-66
2022/02/03 03:46:48;;;;;;;;;;;;;;;14.59;62.13;101451.81;1017228;29;967;-67
2022/02/03 03:48:00;;;;;;;;;;;;;;;14.60;62.20;101455.34;1017656;29;633;-66
2022/02/03 03:48:50;;;;;;;;;;;;;;;14.59;61.85;101451.81;1017248;29;864;-66
2022/02/03 03:51:00;;;;;;;;;;;;;;;14.59;62.23;101453.63;1018844;29;1560;-66
2022/02/03 03:51:57;;;;;;;;;;;;;;;14.58;62.02;101447.41;1021624;29;631;-63
2022/02/03 03:52:51;;;;;;;;;;;;;;;14.59;61.96;101454.50;1021616;29;709;-63
2022/02/03 03:54:00;;;;;;;;;;;;;;;14.59;61.78;101443.75;1017579;29;918;-67
2022/02/03 03:55:01;;;;;;;;;;;;;;;14.59;61.78;101442.91;1017168;29;628;-68
2022/02/03 03:55:59;;;;;;;;;;;;;;;14.60;62.28;101444.63;1017128;29;2019;-68
2022/02/03 03:57:00;;;;;;;;;;;;;;;14.58;62.18;101436.69;1017728;29;667;-68
2022/02/03 03:59:49;;;;;;;;;;;;;;;14.58;61.94;101435.81;1010181;29;2134;-69
2022/02/03 04:30:54;;;;;;;;;;;;;;;14.53;62.27;101411.16;1022060;29;813;-62
2022/02/03 04:32:18;;;;;;;;;;;;;;;14.54;61.94;101407.50;1021124;29;799;-60
2022/02/03 04:33:28;;;;;;;;;;;;;;;14.50;62.36;101408.72;1021026;29;768;-61
2022/02/03 04:36:25;;;;;;;;;;;;;;;14.48;62.01;101397.25;1021329;29;810;-63
2022/02/03 04:44:55;;;;;;;;;;;;;;;14.49;62.18;101401.63;1022114;29;746;-63
2022/02/03 05:01:28;;;;;;;;;;;;;;;14.43;61.83;101364.53;1009287;29;807;-63
2022/02/03 05:02:41;;;;;;;;;;;;;;;14.44;62.13;101360.88;1009372;29;842;-63
2022/02/03 05:03:50;;;;;;;;;;;;;;;14.44;62.23;101368.94;1017946;29;1969;-62
2022/02/03 05:05:51;;;;;;;;;;;;;;;14.44;62.38;101361.75;1021514;29;705;-62
2022/02/03 05:07:06;;;;;;;;;;;;;;;14.44;61.68;101363.56;1021403;29;662;-62
2022/02/03 05:09:00;;;;;;;;;;;;;;;14.44;61.84;101355.53;1021564;29;1860;-63
2022/02/03 05:10:07;;;;;;;;;;;;;;;14.43;61.72;101364.53;1020868;29;702;-63
2022/02/03 05:11:16;;;;;;;;;;;;;;;14.41;61.81;101358.41;1021984;28;738;-64
2022/02/03 05:13:25;;;;;;;;;;;;;;;14.39;62.20;101354.97;1021419;29;658;-63
2022/02/03 05:15:47;;;;;;;;;;;;;;;14.39;61.91;101354.97;1021451;29;709;-62
2022/02/03 05:17:00;;;;;;;;;;;;;;;14.39;62.14;101363.84;1021442;29;935;-63
2022/02/03 05:19:24;;;;;;;;;;;;;;;14.38;61.83;101353.25;1021932;29;880;-63
2022/02/03 05:20:34;;;;;;;;;;;;;;;14.39;62.11;101357.63;1017025;29;711;-63
2022/02/03 05:22:47;;;;;;;;;;;;;;;14.39;61.84;101355.81;1017605;29;726;-67
2022/02/03 05:23:57;;;;;;;;;;;;;;;14.38;61.67;101358.59;1016833;29;1337;-63
2022/02/03 05:25:19;;;;;;;;;;;;;;;14.39;61.68;101354.97;1019990;29;1875;-64
2022/02/03 05:26:23;;;;;;;;;;;;;;;14.39;62.19;101354.97;1020711;29;1857;-64
2022/02/03 05:32:56;;;;;;;;;;;;;;;14.36;61.71;101350.66;1021277;29;2002;-65
2022/02/03 05:34:53;;;;;;;;;;;;;;;14.35;62.36;101346.28;1020984;29;709;-62
2022/02/03 05:42:23;;;;;;;;;;;;;;;14.47;62.08;101331.16;1021072;29;773;-61
2022/02/03 05:43:48;;;;;;;;;;;;;;;14.48;61.73;101331.06;1022591;29;839;-61
2022/02/03 05:44:55;;;;;;;;;;;;;;;14.55;61.51;101337.66;1019820;29;1683;-61
2022/02/03 05:46:51;;;;;;;;;;;;;;;14.61;60.80;101339.03;1022752;29;790;-61
2022/02/03 05:48:06;;;;;;;;;;;;;;;14.65;60.99;101329.81;1021686;29;838;-63
2022/02/03 05:51:09;;;;;;;;;;;;;;;14.74;60.62;101330.94;1022511;29;1216;-63
2022/02/03 05:54:45;;;;;;;;;;;;;;;14.84;61.05;101323.94;1019908;29;1496;-62
2022/02/03 06:04:08;;;;;;;;;;;;;;;15.00;60.44;101323.63;1009002;29;1290;-66
2022/02/03 06:08:17;;;;;;;;;;;;;;;14.98;60.52;101304.94;1007590;29;1138;-65
2022/02/03 06:12:52;;;;;;;;;;;;;;;14.93;60.34;101294.56;1022434;29;1477;-65
2022/02/03 06:13:53;;;;;;;;;;;;;;;14.93;60.82;101293.69;1019140;29;1493;-66
2022/02/03 06:14:58;;;;;;;;;;;;;;;14.95;61.17;101289.06;1019833;29;1973;-66
2022/02/03 06:16:16;;;;;;;;;;;;;;;14.95;60.87;101283.72;1020551;29;1493;-66
2022/02/03 06:20:42;;;;;;;;;;;;;;;14.96;60.44;101280.06;1021199;29;1491;-65
2022/02/03 06:21:51;;;;;;;;;;;;;;;14.98;60.70;101277.25;1022296;29;1472;-65
2022/02/03 06:22:46;;;;;;;;;;;;;;;14.99;60.89;101269.09;1018914;29;1388;-65
2022/02/03 06:23:48;;;;;;;;;;;;;;;14.99;60.45;101276.28;1018132;29;1390;-65
2022/02/03 06:27:23;;;;;;;;;;;;;;;15.01;60.67;101279.72;1017881;29;1472;-68
2022/02/03 06:27:36;;;;;;;;;;;;;;;15.00;60.63;101275.31;1011931;29;1696;-66
2022/02/03 06:28:26;;;;;;;;;;;;;;;14.99;60.75;101266.41;1013774;29;1560;-67
2022/02/03 06:29:17;;;;;;;;;;;;;;;14.99;60.95;101273.59;1013588;29;1496;-66
2022/02/03 06:30:08;;;;;;;;;;;;;;;14.99;60.85;101270.91;1011801;29;1572;-67
2022/02/03 06:30:58;;;;;;;;;;;;;;;15.00;60.33;101269.94;1012564;29;1915;-66
2022/02/03 06:31:49;;;;;;;;;;;;;;;15.00;60.84;101267.25;1014237;29;989;-66
2022/02/03 06:32:39;;;;;;;;;;;;;;;15.03;60.78;101270.56;1014276;29;635;-67
2022/02/03 06:33:30;;;;;;;;;;;;;;;15.05;60.37;101265.91;1022443;29;650;-62
2022/02/03 06:34:21;;;;;;;;;;;;;;;15.05;60.52;101263.22;1020644;29;2020;-61
2022/02/03 06:35:11;;;;;;;;;;;;;;;15.07;60.57;101263.09;1017469;29;835;-63
2022/02/03 06:36:02;;;;;;;;;;;;;;;15.06;60.70;101256.88;1018825;29;1133;-62
2022/02/03 06:36:52;;;;;;;;;;;;;;;15.03;60.90;101259.84;1021385;29;1982;-62
2022/02/03 06:37:45;;;;;;;;;;;;;;;15.02;60.47;101257.25;1021130;29;1575;-62
2022/02/03 06:38:35;;;;;;;;;;;;;;;15.01;60.39;101258.25;1018956;29;1042;-65
2022/02/03 06:39:26;;;;;;;;;;;;;;;15.02;60.85;101257.25;1019636;29;1760;-64
2022/02/03 06:40:16;;;;;;;;;;;;;;;15.01;60.83;101258.25;1020741;29;870;-63
2022/02/03 06:41:06;;;;;;;;;;;;;;;15.02;60.77;101251.91;1020960;29;815;-66
2022/02/03 06:41:58;;;;;;;;;;;;;;;15.00;60.81;101245.78;1020774;29;761;-64
2022/02/03 06:42:54;;;;;;;;;;;;;;;14.99;60.95;101246.75;1021907;29;705;-63
2022/02/03 06:43:45;;;;;;;;;;;;;;;14.97;60.69;101244.19;1021484;29;726;-64
2022/02/03 06:44:53;;;;;;;;;;;;;;;14.98;61.23;101245.06;1020706;29;1791;-64
2022/02/03 06:45:48;;;;;;;;;;;;;;;14.98;60.89;101242.38;1016605;29;666;-65
2022/02/03 06:46:41;;;;;;;;;;;;;;;14.97;60.76;101246.03;1017815;29;820;-65
2022/02/03 06:47:46;;;;;;;;;;;;;;;14.96;60.73;101236.25;1018098;29;684;-64
2022/02/03 06:48:38;;;;;;;;;;;;;;;14.94;61.24;101231.84;1018521;29;844;-65
2022/02/03 06:50:43;;;;;;;;;;;;;;;14.91;61.28;101226.72;1022305;29;812;-64
2022/02/03 06:51:37;;;;;;;;;;;;;;;14.92;61.07;101231.13;1021938;29;686;-64
2022/02/03 06:52:39;;;;;;;;;;;;;;;14.94;61.03;101234.53;1021840;29;751;-65
2022/02/03 06:53:34;;;;;;;;;;;;;;;15.01;63.27;101234.09;1021789;29;1313;-64
2022/02/03 06:55:14;;;;;;;;;;;;;;;15.05;64.54;101235.56;1021732;29;1911;-64
2022/02/03 06:56:37;;;;;;;;;;;;;;;15.09;65.72;101234.31;1022061;29;1960;-65
2022/02/03 06:57:36;;;;;;;;;;;;;;;15.09;65.35;101235.19;1021748;29;752;-65
2022/02/03 06:58:36;;;;;;;;;;;;;;;15.10;65.94;101236.91;1021711;29;1474;-64
2022/02/03 06:59:38;;;;;;;;;;;;;;;15.10;65.90;101233.34;1021077;29;1295;-64
2022/02/03 07:01:42;;;;;;;;;;;;;;;15.11;65.61;101240.44;1008360;29;1340;-66
2022/02/03 07:02:39;;;;;;;;;;;;;;;15.10;65.72;101241.41;1013607;29;1228;-65
2022/02/03 07:03:33;;;;;;;;;;;;;;;15.08;65.50;101233.47;1015665;29;1228;-65
2022/02/03 07:04:27;;;;;;;;;;;;;;;15.07;65.74;101239.81;1016377;29;1419;-65
2022/02/03 07:05:17;;;;;;;;;;;;;;;15.06;65.30;101231.88;1017467;29;889;-65
2022/02/03 07:06:08;;;;;;;;;;;;;;;15.05;65.48;101231.00;1021794;29;1944;-65
2022/02/03 07:07:01;;;;;;;;;;;;;;;15.05;65.40;101222.16;1021720;29;808;-65
2022/02/03 07:07:52;;;;;;;;;;;;;;;15.07;65.47;101217.47;1022377;29;818;-66
2022/02/03 07:08:43;;;;;;;;;;;;;;;15.06;65.22;101218.44;1021605;29;965;-65
2022/02/03 07:09:34;;;;;;;;;;;;;;;15.04;65.10;101223.13;1022101;29;1801;-64
2022/02/03 07:10:26;;;;;;;;;;;;;;;15.04;64.98;101225.81;1021960;29;775;-66
2022/02/03 07:11:19;;;;;;;;;;;;;;;15.04;64.97;101221.28;1021451;29;862;-66
2022/02/03 07:12:10;;;;;;;;;;;;;;;15.05;64.76;101224.81;1021371;29;765;-66
2022/02/03 07:13:00;;;;;;;;;;;;;;;15.04;64.35;101223.13;1020682;29;726;-66
2022/02/03 07:13:50;;;;;;;;;;;;;;;15.03;64.24;101213.34;1020804;29;855;-66
2022/02/03 07:14:41;;;;;;;;;;;;;;;15.02;64.49;101225.06;1020486;29;1969;-66
2022/02/03 07:15:31;;;;;;;;;;;;;;;15.00;64.50;101217.13;1020673;29;936;-66
2022/02/03 07:16:22;;;;;;;;;;;;;;;14.99;64.55;101226.16;1021235;29;818;-66
2022/02/03 07:17:12;;;;;;;;;;;;;;;14.98;64.35;101232.47;1020658;29;725;-66
2022/02/03 07:18:03;;;;;;;;;;;;;;;14.98;63.80;101231.63;1022042;29;678;-66
2022/02/03 07:18:54;;;;;;;;;;;;;;;14.98;63.69;101229.81;1021574;29;631;-67
2022/02/03 07:19:48;;;;;;;;;;;;;;;15.00;64.04;101245.78;1021195;29;749;-66
2022/02/03 07:20:39;;;;;;;;;;;;;;;15.00;63.89;101233.22;1021426;29;682;-66
2022/02/03 07:21:29;;;;;;;;;;;;;;;15.01;63.95;101229.56;1019650;29;1740;-66
2022/02/03 07:22:20;;;;;;;;;;;;;;;15.02;63.92;101236.66;1018653;29;1753;-66
2022/02/03 07:23:10;;;;;;;;;;;;;;;15.05;63.65;101240.94;1020259;29;1456;-67
2022/02/03 07:24:00;;;;;;;;;;;;;;;15.05;63.26;101235.56;1016717;29;809;-67
2022/02/03 07:24:52;;;;;;;;;;;;;;;15.06;63.46;101235.41;1018422;29;765;-66
2022/02/03 07:25:43;;;;;;;;;;;;;;;15.06;63.16;101243.47;1018330;29;826;-66
2022/02/03 07:26:33;;;;;;;;;;;;;;;15.07;62.86;101239.81;1018332;29;787;-66
2022/02/03 07:27:23;;;;;;;;;;;;;;;15.09;63.18;101234.31;1017915;29;981;-66
2022/02/03 07:28:14;;;;;;;;;;;;;;;15.09;63.18;101235.19;1021060;29;1569;-66
2022/02/03 07:29:04;;;;;;;;;;;;;;;15.10;63.08;101242.25;1021606;29;2098;-66
2022/02/03 07:29:55;;;;;;;;;;;;;;;15.14;62.87;101235.69;1021721;29;770;-67
2022/02/03 07:30:45;;;;;;;;;;;;;;;15.17;62.81;101239.97;1021638;29;690;-66
2022/02/03 07:31:36;;;;;;;;;;;;;;;15.18;62.62;101247.06;1021708;29;719;-66
2022/02/03 07:32:26;;;;;;;;;;;;;;;15.16;62.71;101249.84;1021592;29;936;-66
2022/02/03 07:33:16;;;;;;;;;;;;;;;15.14;63.02;101246.44;1017201;29;783;-66
2022/02/03 07:34:13;;;;;;;;;;;;;;;15.14;62.76;101254.47;1017328;29;752;-67
2022/02/03 07:35:03;;;;;;;;;;;;;;;15.13;62.39;101244.72;1021114;29;773;-67
2022/02/03 07:35:53;;;;;;;;;;;;;;;15.11;62.28;101240.44;1021832;29;762;-66
2022/02/03 07:36:46;;;;;;;;;;;;;;;15.09;62.36;101242.38;1021626;29;782;-67
2022/02/03 07:37:36;;;;;;;;;;;;;;;15.08;62.87;101246.03;1021169;29;713;-67
2022/02/03 07:38:26;;;;;;;;;;;;;;;15.06;62.36;101243.47;1021531;29;986;-67
2022/02/03 07:39:17;;;;;;;;;;;;;;;15.04;62.39;101229.34;1021578;29;753;-66
2022/02/03 07:40:07;;;;;;;;;;;;;;;15.05;62.58;101235.56;1021650;29;769;-67
2022/02/03 07:40:58;;;;;;;;;;;;;;;15.03;62.63;101227.63;1021197;29;793;-66
2022/02/03 07:41:48;;;;;;;;;;;;;;;15.02;62.81;101225.91;1021550;29;627;-66
2022/02/03 07:42:42;;;;;;;;;;;;;;;15.04;62.36;101223.13;1021622;29;777;-67
2022/02/03 07:43:41;;;;;;;;;;;;;;;15.02;62.34;101222.38;1016509;29;1826;-67
2022/02/03 07:44:34;;;;;;;;;;;;;;;15.01;62.66;101224.19;1017937;29;682;-66
2022/02/03 07:45:25;;;;;;;;;;;;;;;15.02;62.46;101217.00;1021659;29;685;-66
2022/02/03 07:46:34;;;;;;;;;;;;;;;15.02;62.58;101208.97;1022658;28;620;-66
2022/02/03 07:47:27;;;;;;;;;;;;;;;15.02;62.52;101219.69;1017973;29;721;-67
2022/02/03 07:48:18;;;;;;;;;;;;;;;15.01;62.64;101217.97;1018582;29;634;-65
2022/02/03 07:49:08;;;;;;;;;;;;;;;15.00;62.57;101213.59;1020391;29;631;-64
2022/02/03 07:49:59;;;;;;;;;;;;;;;15.00;61.96;101217.13;1017784;29;709;-65
2022/02/03 07:50:49;;;;;;;;;;;;;;;14.99;62.32;101209.19;1018031;29;1559;-65
2022/02/03 07:51:40;;;;;;;;;;;;;;;14.99;62.55;101210.03;1020847;29;1260;-66
2022/02/03 07:52:33;;;;;;;;;;;;;;;15.03;62.79;101213.34;1021561;29;733;-65
2022/02/03 07:53:23;;;;;;;;;;;;;;;15.04;62.19;101217.75;1018289;28;1037;-63
2022/02/03 07:54:14;;;;;;;;;;;;;;;15.05;62.20;101214.91;1017379;29;764;-64
2022/02/03 07:55:06;;;;;;;;;;;;;;;15.07;62.60;101218.34;1021053;29;814;-64
2022/02/03 07:55:56;;;;;;;;;;;;;;;15.09;62.65;101212.84;1021852;29;1863;-64
2022/02/03 07:56:46;;;;;;;;;;;;;;;15.10;62.78;101222.63;1021455;29;1570;-67
2022/02/03 07:57:37;;;;;;;;;;;;;;;15.10;62.51;101210.06;1020373;29;1423;-64
2022/02/03 07:58:27;;;;;;;;;;;;;;;15.09;62.59;101218.22;1017111;29;1392;-66
2022/02/03 07:59:18;;;;;;;;;;;;;;;15.07;62.23;101217.47;1017180;29;682;-66
2022/02/03 08:00:08;;;;;;;;;;;;;;;15.06;62.52;101210.41;1016976;29;828;-65
2022/02/03 08:00:59;;;;;;;;;;;;;;;15.06;62.75;101213.09;1020377;29;1338;-65
2022/02/03 08:01:49;;;;;;;;;;;;;;;15.03;62.86;101218.72;1017740;29;648;-65
2022/02/03 08:02:42;;;;;;;;;;;;;;;15.02;62.29;101217.84;1017203;29;679;-65
2022/02/03 08:03:33;;;;;;;;;;;;;;;15.01;62.38;101215.28;1017591;29;703;-65
2022/02/03 08:04:28;;;;;;;;;;;;;;;15.01;62.68;101212.63;1012905;29;765;-65
2022/02/03 08:05:20;;;;;;;;;;;;;;;14.99;62.58;101209.19;1013943;29;871;-65
2022/02/03 08:06:18;;;;;;;;;;;;;;;14.98;62.54;101219.06;1017612;29;784;-65
2022/02/03 08:07:09;;;;;;;;;;;;;;;14.97;62.85;101225.41;1017031;29;646;-65
2022/02/03 08:08:10;;;;;;;;;;;;;;;14.96;62.72;101220.16;1017212;29;896;-65
2022/02/03 08:09:08;;;;;;;;;;;;;;;14.93;62.41;101221.25;1017612;29;799;-65
2022/02/03 08:10:05;;;;;;;;;;;;;;;14.94;62.64;101209.53;1017121;29;855;-65
2022/02/03 08:11:00;;;;;;;;;;;;;;;14.94;62.17;101212.22;1017555;29;728;-66
2022/02/03 08:11:52;;;;;;;;;;;;;;;14.94;62.55;101210.38;1016974;29;800;-65
2022/02/03 08:12:42;;;;;;;;;;;;;;;14.97;62.45;101208.44;1013680;29;1789;-65
2022/02/03 08:13:37;;;;;;;;;;;;;;;14.97;62.36;101203.06;1015368;29;1443;-65
2022/02/03 08:14:38;;;;;;;;;;;;;;;14.99;62.14;101203.81;1021573;29;1891;-65
2022/02/03 08:15:31;;;;;;;;;;;;;;;15.01;62.10;101207.25;1018507;29;1661;-65
2022/02/03 08:16:28;;;;;;;;;;;;;;;15.02;61.97;101198.22;1021786;29;1466;-65
2022/02/03 08:17:23;;;;;;;;;;;;;;;15.01;62.08;101201.88;1021005;29;769;-65
2022/02/03 08:18:18;;;;;;;;;;;;;;;15.02;61.71;101199.06;1020987;29;899;-65
2022/02/03 08:19:16;;;;;;;;;;;;;;;15.04;61.48;101202.50;1018013;29;775;-65
2022/02/03 08:20:13;;;;;;;;;;;;;;;15.05;61.96;101197.97;1017347;29;844;-65
2022/02/03 08:21:06;;;;;;;;;;;;;;;15.05;61.95;101203.34;1021579;29;771;-66
2022/02/03 08:22:04;;;;;;;;;;;;;;;15.04;61.82;101194.44;1020399;29;654;-64
2022/02/03 08:24:17;;;;;;;;;;;;;;;15.05;61.56;101192.63;1020776;29;1858;-65
2022/02/03 08:26:48;;;;;;;;;;;;;;;15.01;61.48;101194.69;1018232;29;1975;-65
2022/02/03 08:29:31;;;;;;;;;;;;;;;14.98;61.57;101181.50;1021499;29;788;-64
2022/02/03 08:32:00;;;;;;;;;;;;;;;15.00;61.94;101189.44;1013211;29;1588;-65
2022/02/03 08:32:56;;;;;;;;;;;;;;;15.01;61.74;101183.09;1013055;29;1885;-65
2022/02/03 08:33:50;;;;;;;;;;;;;;;14.99;61.53;101179.66;1013261;29;1642;-65
2022/02/03 08:35:49;;;;;;;;;;;;;;;14.99;61.63;101177.84;1021465;29;863;-64
2022/02/03 08:36:40;;;;;;;;;;;;;;;14.98;61.60;101175.28;1021555;29;655;-65
2022/02/03 08:37:57;;;;;;;;;;;;;;;14.97;61.63;101177.09;1021528;29;650;-65
2022/02/03 08:38:54;;;;;;;;;;;;;;;14.98;61.90;101165.38;1017983;29;1462;-65